sensor_id;sensor_type;location;lat;lon;timestamp;pressure;altitude;pressure_sealevel;temperature;humidity
72359;BME280;60317;48.880;-0.862;2023-07-29T00:02:20;99776.94;;;20.55;65.84
72359;BME280;60317;48.880;-0.862;2023-07-29T00:04:48;99782.44;;;20.53;65.96
72359;BME280;60317;48.880;-0.862;2023-07-29T00:07:14;99785.13;;;20.53;65.93
72359;BME280;60317;48.880;-0.862;2023-07-29T00:09:41;99786.97;;;20.53;66.06
72359;BME280;60317;48.880;-0.862;2023-07-29T00:12:07;99785.13;;;20.53;65.98
72359;BME280;60317;48.880;-0.862;2023-07-29T00:14:34;99786.97;;;20.53;65.89
72359;BME280;60317;48.880;-0.862;2023-07-29T00:17:01;99786.13;;;20.52;66.04
72359;BME280;60317;48.880;-0.862;2023-07-29T00:19:27;99787.81;;;20.53;66.14
72359;BME280;60317;48.880;-0.862;2023-07-29T00:21:55;99787.81;;;20.53;65.88
72359;BME280;60317;48.880;-0.862;2023-07-29T00:24:21;99793.50;;;20.50;66.02
72359;BME280;60317;48.880;-0.862;2023-07-29T00:26:48;99789.91;;;20.49;65.91
72359;BME280;60317;48.880;-0.862;2023-07-29T00:29:14;99792.50;;;20.51;65.84
72359;BME280;60317;48.880;-0.862;2023-07-29T00:31:41;99795.19;;;20.51;65.93
72359;BME280;60317;48.880;-0.862;2023-07-29T00:34:07;99789.91;;;20.49;65.83
72359;BME280;60317;48.880;-0.862;2023-07-29T00:36:34;99795.44;;;20.48;65.80
72359;BME280;60317;48.880;-0.862;2023-07-29T00:39:03;99785.56;;;20.48;65.88
72359;BME280;60317;48.880;-0.862;2023-07-29T00:41:29;99772.97;;;20.49;65.78
72359;BME280;60317;48.880;-0.862;2023-07-29T00:43:56;99781.03;;;20.49;65.83
72359;BME280;60317;48.880;-0.862;2023-07-29T00:46:22;99772.97;;;20.49;65.96
72359;BME280;60317;48.880;-0.862;2023-07-29T00:48:49;99767.59;;;20.49;65.77
72359;BME280;60317;48.880;-0.862;2023-07-29T00:51:16;99767.75;;;20.47;65.87
72359;BME280;60317;48.880;-0.862;2023-07-29T00:53:43;99757.16;;;20.46;65.85
72359;BME280;60317;48.880;-0.862;2023-07-29T00:56:11;99758.88;;;20.47;65.79
72359;BME280;60317;48.880;-0.862;2023-07-29T00:58:38;99759.72;;;20.47;65.80
72359;BME280;60317;48.880;-0.862;2023-07-29T01:01:05;99760.72;;;20.46;65.87
72359;BME280;60317;48.880;-0.862;2023-07-29T01:03:31;99758.03;;;20.46;65.85
72359;BME280;60317;48.880;-0.862;2023-07-29T01:06:21;99762.41;;;20.47;65.52
72359;BME280;60317;48.880;-0.862;2023-07-29T01:08:57;99759.84;;;20.46;65.87
72359;BME280;60317;48.880;-0.862;2023-07-29T01:11:35;99766.09;;;20.46;65.66
72359;BME280;60317;48.880;-0.862;2023-07-29T01:14:11;99758.03;;;20.46;65.82
72359;BME280;60317;48.880;-0.862;2023-07-29T01:16:49;99753.63;;;20.45;65.89
72359;BME280;60317;48.880;-0.862;2023-07-29T01:19:29;99751.78;;;20.46;65.98
72359;BME280;60317;48.880;-0.862;2023-07-29T01:21:59;99745.75;;;20.44;65.76
72359;BME280;60317;48.880;-0.862;2023-07-29T01:24:27;99750.81;;;20.47;65.76
72359;BME280;60317;48.880;-0.862;2023-07-29T01:26:53;99747.44;;;20.45;65.82
72359;BME280;60317;48.880;-0.862;2023-07-29T01:29:20;99742.22;;;20.43;65.87
72359;BME280;60317;48.880;-0.862;2023-07-29T01:31:51;99742.06;;;20.45;65.71
72359;BME280;60317;48.880;-0.862;2023-07-29T01:34:24;99737.53;;;20.45;65.75
72359;BME280;60317;48.880;-0.862;2023-07-29T01:36:53;99735.00;;;20.44;65.60
72359;BME280;60317;48.880;-0.862;2023-07-29T01:39:21;99739.53;;;20.43;65.89
72359;BME280;60317;48.880;-0.862;2023-07-29T01:41:49;99734.19;;;20.43;65.75
72359;BME280;60317;48.880;-0.862;2023-07-29T01:44:17;99728.81;;;20.43;65.66
72359;BME280;60317;48.880;-0.862;2023-07-29T01:46:44;99722.59;;;20.43;65.74
72359;BME280;60317;48.880;-0.862;2023-07-29T01:49:11;99727.09;;;20.42;65.69
72359;BME280;60317;48.880;-0.862;2023-07-29T01:51:37;99730.66;;;20.43;65.87
72359;BME280;60317;48.880;-0.862;2023-07-29T01:54:04;99722.59;;;20.43;65.84
72359;BME280;60317;48.880;-0.862;2023-07-29T01:56:30;99727.09;;;20.42;65.81
72359;BME280;60317;48.880;-0.862;2023-07-29T01:58:58;99724.56;;;20.41;66.09
72359;BME280;60317;48.880;-0.862;2023-07-29T02:01:25;99727.09;;;20.42;65.78
72359;BME280;60317;48.880;-0.862;2023-07-29T02:03:51;99718.19;;;20.42;66.12
72359;BME280;60317;48.880;-0.862;2023-07-29T02:06:18;99720.88;;;20.42;65.93
72359;BME280;60317;48.880;-0.862;2023-07-29T02:08:44;99725.41;;;20.41;65.96
72359;BME280;60317;48.880;-0.862;2023-07-29T02:11:11;99718.38;;;20.40;66.06
72359;BME280;60317;48.880;-0.862;2023-07-29T02:13:37;99731.63;;;20.42;65.97
72359;BME280;60317;48.880;-0.862;2023-07-29T02:16:05;99727.09;;;20.42;66.04
72359;BME280;60317;48.880;-0.862;2023-07-29T02:18:32;99721.88;;;20.41;66.07
72359;BME280;60317;48.880;-0.862;2023-07-29T02:20:58;99717.38;;;20.41;66.07
72359;BME280;60317;48.880;-0.862;2023-07-29T02:23:25;99720.03;;;20.41;66.12
72359;BME280;60317;48.880;-0.862;2023-07-29T02:25:51;99717.38;;;20.41;66.11
72359;BME280;60317;48.880;-0.862;2023-07-29T02:28:17;99715.69;;;20.40;66.25
72359;BME280;60317;48.880;-0.862;2023-07-29T02:30:44;99724.56;;;20.41;66.34
72359;BME280;60317;48.880;-0.862;2023-07-29T02:33:12;99715.69;;;20.40;66.14
72359;BME280;60317;48.880;-0.862;2023-07-29T02:35:39;99715.69;;;20.40;66.32
72359;BME280;60317;48.880;-0.862;2023-07-29T02:38:06;99714.00;;;20.39;66.18
72359;BME280;60317;48.880;-0.862;2023-07-29T02:40:32;99719.22;;;20.41;66.07
72359;BME280;60317;48.880;-0.862;2023-07-29T02:42:59;99707.63;;;20.40;66.05
72359;BME280;60317;48.880;-0.862;2023-07-29T02:45:25;99713.84;;;20.41;66.24
72359;BME280;60317;48.880;-0.862;2023-07-29T02:47:51;99712.16;;;20.40;66.25
72359;BME280;60317;48.880;-0.862;2023-07-29T02:50:19;99717.38;;;20.41;66.27
72359;BME280;60317;48.880;-0.862;2023-07-29T02:52:46;99712.00;;;20.41;66.11
72359;BME280;60317;48.880;-0.862;2023-07-29T02:55:16;99713.00;;;20.40;66.13
72359;BME280;60317;48.880;-0.862;2023-07-29T02:57:43;99707.63;;;20.40;66.27
72359;BME280;60317;48.880;-0.862;2023-07-29T03:00:10;99705.94;;;20.39;66.28
72359;BME280;60317;48.880;-0.862;2023-07-29T03:02:37;99709.47;;;20.40;66.33
72359;BME280;60317;48.880;-0.862;2023-07-29T03:05:04;99704.94;;;20.40;66.55
72359;BME280;60317;48.880;-0.862;2023-07-29T03:07:32;99702.25;;;20.40;66.32
72359;BME280;60317;48.880;-0.862;2023-07-29T03:09:58;99704.94;;;20.40;66.37
72359;BME280;60317;48.880;-0.862;2023-07-29T03:12:25;99709.31;;;20.41;66.32
72359;BME280;60317;48.880;-0.862;2023-07-29T03:14:51;99706.63;;;20.41;66.42
72359;BME280;60317;48.880;-0.862;2023-07-29T03:17:18;99705.78;;;20.41;66.46
72359;BME280;60317;48.880;-0.862;2023-07-29T03:19:44;99708.47;;;20.41;66.55
72359;BME280;60317;48.880;-0.862;2023-07-29T03:22:11;99715.69;;;20.40;66.51
72359;BME280;60317;48.880;-0.862;2023-07-29T03:24:38;99697.91;;;20.39;66.59
72359;BME280;60317;48.880;-0.862;2023-07-29T03:27:05;99713.00;;;20.40;66.51
72359;BME280;60317;48.880;-0.862;2023-07-29T03:29:31;99712.84;;;20.42;66.45
72359;BME280;60317;48.880;-0.862;2023-07-29T03:31:58;99713.84;;;20.41;66.67
72359;BME280;60317;48.880;-0.862;2023-07-29T03:34:24;99714.69;;;20.41;66.55
72359;BME280;60317;48.880;-0.862;2023-07-29T03:36:51;99714.69;;;20.41;66.38
72359;BME280;60317;48.880;-0.862;2023-07-29T03:39:17;99711.16;;;20.41;66.55
72359;BME280;60317;48.880;-0.862;2023-07-29T03:41:45;99713.00;;;20.40;66.67
72359;BME280;60317;48.880;-0.862;2023-07-29T03:44:12;99714.84;;;20.40;66.67
72359;BME280;60317;48.880;-0.862;2023-07-29T03:46:38;99706.78;;;20.40;66.44
72359;BME280;60317;48.880;-0.862;2023-07-29T03:49:06;99700.59;;;20.39;66.57
72359;BME280;60317;48.880;-0.862;2023-07-29T03:51:32;99706.78;;;20.40;66.66
72359;BME280;60317;48.880;-0.862;2023-07-29T03:53:58;99697.75;;;20.41;66.55
72359;BME280;60317;48.880;-0.862;2023-07-29T03:56:25;99697.91;;;20.39;66.75
72359;BME280;60317;48.880;-0.862;2023-07-29T03:58:53;99702.25;;;20.40;66.65
72359;BME280;60317;48.880;-0.862;2023-07-29T04:01:19;99695.22;;;20.39;66.67
72359;BME280;60317;48.880;-0.862;2023-07-29T04:03:46;99711.31;;;20.39;66.55
72359;BME280;60317;48.880;-0.862;2023-07-29T04:06:13;99704.09;;;20.40;66.75
72359;BME280;60317;48.880;-0.862;2023-07-29T04:08:39;99711.31;;;20.39;66.69
72359;BME280;60317;48.880;-0.862;2023-07-29T04:11:06;99708.63;;;20.39;66.76
72359;BME280;60317;48.880;-0.862;2023-07-29T04:13:33;99706.94;;;20.38;66.73
72359;BME280;60317;48.880;-0.862;2023-07-29T04:16:00;99703.28;;;20.39;66.54
72359;BME280;60317;48.880;-0.862;2023-07-29T04:18:27;99705.94;;;20.39;66.69
72359;BME280;60317;48.880;-0.862;2023-07-29T04:20:53;99701.44;;;20.40;66.65
72359;BME280;60317;48.880;-0.862;2023-07-29T04:23:20;99704.25;;;20.38;66.87
72359;BME280;60317;48.880;-0.862;2023-07-29T04:25:46;99698.88;;;20.38;66.66
72359;BME280;60317;48.880;-0.862;2023-07-29T04:28:13;99698.03;;;20.38;66.70
72359;BME280;60317;48.880;-0.862;2023-07-29T04:30:39;99698.88;;;20.38;66.69
72359;BME280;60317;48.880;-0.862;2023-07-29T04:33:07;99697.91;;;20.39;66.75
72359;BME280;60317;48.880;-0.862;2023-07-29T04:35:34;99694.22;;;20.40;66.62
72359;BME280;60317;48.880;-0.862;2023-07-29T04:38:00;99699.88;;;20.37;66.70
72359;BME280;60317;48.880;-0.862;2023-07-29T04:40:27;99705.09;;;20.39;66.67
72359;BME280;60317;48.880;-0.862;2023-07-29T04:42:53;99709.59;;;20.38;66.79
72359;BME280;60317;48.880;-0.862;2023-07-29T04:45:20;99707.75;;;20.39;66.61
72359;BME280;60317;48.880;-0.862;2023-07-29T04:47:46;99702.41;;;20.39;66.66
72359;BME280;60317;48.880;-0.862;2023-07-29T04:50:14;99709.59;;;20.38;66.75
72359;BME280;60317;48.880;-0.862;2023-07-29T04:52:41;99710.63;;;20.37;66.64
72359;BME280;60317;48.880;-0.862;2023-07-29T04:55:07;99712.28;;;20.38;66.63
72359;BME280;60317;48.880;-0.862;2023-07-29T04:57:34;99712.16;;;20.40;66.80
72359;BME280;60317;48.880;-0.862;2023-07-29T05:00:02;99708.63;;;20.39;66.79
72359;BME280;60317;48.880;-0.862;2023-07-29T05:02:29;99703.41;;;20.38;66.78
72359;BME280;60317;48.880;-0.862;2023-07-29T05:04:55;99708.63;;;20.39;67.01
72359;BME280;60317;48.880;-0.862;2023-07-29T05:07:23;99708.94;;;20.36;66.84
72359;BME280;60317;48.880;-0.862;2023-07-29T05:09:50;99708.78;;;20.38;66.90
72359;BME280;60317;48.880;-0.862;2023-07-29T05:12:16;99702.56;;;20.37;66.91
72359;BME280;60317;48.880;-0.862;2023-07-29T05:14:43;99709.59;;;20.38;66.82
72359;BME280;60317;48.880;-0.862;2023-07-29T05:17:10;99706.09;;;20.38;66.83
72359;BME280;60317;48.880;-0.862;2023-07-29T05:19:36;99710.44;;;20.39;66.74
72359;BME280;60317;48.880;-0.862;2023-07-29T05:22:03;99713.31;;;20.37;66.99
72359;BME280;60317;48.880;-0.862;2023-07-29T05:24:32;99714.00;;;20.39;66.83
72359;BME280;60317;48.880;-0.862;2023-07-29T05:26:58;99714.13;;;20.38;67.04
72359;BME280;60317;48.880;-0.862;2023-07-29T05:29:24;99715.97;;;20.37;66.90
72359;BME280;60317;48.880;-0.862;2023-07-29T05:31:51;99717.66;;;20.38;66.87
72359;BME280;60317;48.880;-0.862;2023-07-29T05:34:17;99722.91;;;20.40;66.95
72359;BME280;60317;48.880;-0.862;2023-07-29T05:36:44;99725.72;;;20.38;66.95
72359;BME280;60317;48.880;-0.862;2023-07-29T05:39:10;99725.72;;;20.38;67.08
72359;BME280;60317;48.880;-0.862;2023-07-29T05:41:38;99720.34;;;20.38;66.96
72359;BME280;60317;48.880;-0.862;2023-07-29T05:44:05;99723.88;;;20.39;67.01
72359;BME280;60317;48.880;-0.862;2023-07-29T05:46:35;99728.41;;;20.38;66.98
72359;BME280;60317;48.880;-0.862;2023-07-29T05:49:02;99730.25;;;20.38;67.10
72359;BME280;60317;48.880;-0.862;2023-07-29T05:51:28;99732.78;;;20.39;67.30
72359;BME280;60317;48.880;-0.862;2023-07-29T05:53:55;99727.56;;;20.38;67.03
72359;BME280;60317;48.880;-0.862;2023-07-29T05:56:21;99729.41;;;20.37;66.99
72359;BME280;60317;48.880;-0.862;2023-07-29T05:58:49;99733.75;;;20.38;67.06
72359;BME280;60317;48.880;-0.862;2023-07-29T06:01:16;99727.56;;;20.38;66.89
72359;BME280;60317;48.880;-0.862;2023-07-29T06:03:42;99727.44;;;20.39;66.89
72359;BME280;60317;48.880;-0.862;2023-07-29T06:06:09;99725.72;;;20.38;67.16
72359;BME280;60317;48.880;-0.862;2023-07-29T06:08:35;99723.88;;;20.39;67.11
72359;BME280;60317;48.880;-0.862;2023-07-29T06:11:02;99720.34;;;20.38;67.22
72359;BME280;60317;48.880;-0.862;2023-07-29T06:13:28;99720.34;;;20.38;67.09
72359;BME280;60317;48.880;-0.862;2023-07-29T06:15:56;99719.38;;;20.39;66.92
72359;BME280;60317;48.880;-0.862;2023-07-29T06:18:24;99715.81;;;20.39;67.12
72359;BME280;60317;48.880;-0.862;2023-07-29T06:20:50;99716.69;;;20.39;67.07
72359;BME280;60317;48.880;-0.862;2023-07-29T06:23:17;99709.47;;;20.40;67.14
72359;BME280;60317;48.880;-0.862;2023-07-29T06:25:43;99707.75;;;20.39;67.08
72359;BME280;60317;48.880;-0.862;2023-07-29T06:28:10;99715.81;;;20.39;67.01
72359;BME280;60317;48.880;-0.862;2023-07-29T06:30:37;99718.38;;;20.40;67.17
72359;BME280;60317;48.880;-0.862;2023-07-29T06:33:05;99713.00;;;20.40;66.96
72359;BME280;60317;48.880;-0.862;2023-07-29T06:35:31;99720.03;;;20.41;67.25
72359;BME280;60317;48.880;-0.862;2023-07-29T06:37:58;99714.69;;;20.41;66.93
72359;BME280;60317;48.880;-0.862;2023-07-29T06:40:24;99720.03;;;20.41;67.38
72359;BME280;60317;48.880;-0.862;2023-07-29T06:42:51;99716.69;;;20.39;67.29
72359;BME280;60317;48.880;-0.862;2023-07-29T06:45:17;99716.53;;;20.41;67.33
72359;BME280;60317;48.880;-0.862;2023-07-29T06:47:44;99726.41;;;20.40;67.41
72359;BME280;60317;48.880;-0.862;2023-07-29T06:50:12;99724.56;;;20.41;67.16
72359;BME280;60317;48.880;-0.862;2023-07-29T06:52:39;99728.25;;;20.40;67.31
72359;BME280;60317;48.880;-0.862;2023-07-29T06:55:06;99728.25;;;20.40;67.30
72359;BME280;60317;48.880;-0.862;2023-07-29T06:57:33;99724.56;;;20.41;67.33
72359;BME280;60317;48.880;-0.862;2023-07-29T06:59:59;99734.47;;;20.40;67.43
72359;BME280;60317;48.880;-0.862;2023-07-29T07:02:26;99732.63;;;20.41;67.31
72359;BME280;60317;48.880;-0.862;2023-07-29T07:04:52;99730.78;;;20.41;67.40
72359;BME280;60317;48.880;-0.862;2023-07-29T07:07:20;99723.75;;;20.40;67.49
72359;BME280;60317;48.880;-0.862;2023-07-29T07:09:46;99726.25;;;20.42;67.44
72359;BME280;60317;48.880;-0.862;2023-07-29T07:12:13;99737.00;;;20.42;67.61
72359;BME280;60317;48.880;-0.862;2023-07-29T07:14:39;99743.19;;;20.42;67.41
72359;BME280;60317;48.880;-0.862;2023-07-29T07:17:06;99740.69;;;20.41;67.50
72359;BME280;60317;48.880;-0.862;2023-07-29T07:19:34;99744.19;;;20.41;67.65
72359;BME280;60317;48.880;-0.862;2023-07-29T07:22:01;99748.56;;;20.42;67.69
72359;BME280;60317;48.880;-0.862;2023-07-29T07:24:28;99747.72;;;20.42;67.64
72359;BME280;60317;48.880;-0.862;2023-07-29T07:26:55;99746.03;;;20.41;67.77
72359;BME280;60317;48.880;-0.862;2023-07-29T07:29:21;99748.56;;;20.42;67.68
72359;BME280;60317;48.880;-0.862;2023-07-29T07:31:51;99746.88;;;20.41;67.86
72359;BME280;60317;48.880;-0.862;2023-07-29T07:34:18;99764.84;;;20.41;67.69
72359;BME280;60317;48.880;-0.862;2023-07-29T07:36:44;99760.31;;;20.41;67.92
72359;BME280;60317;48.880;-0.862;2023-07-29T07:39:11;99764.66;;;20.42;68.08
72359;BME280;60317;48.880;-0.862;2023-07-29T07:41:40;99757.50;;;20.43;68.04
72359;BME280;60317;48.880;-0.862;2023-07-29T07:44:07;99763.69;;;20.43;68.07
72359;BME280;60317;48.880;-0.862;2023-07-29T07:46:33;99759.16;;;20.44;68.13
72359;BME280;60317;48.880;-0.862;2023-07-29T07:49:01;99771.75;;;20.43;68.25
72359;BME280;60317;48.880;-0.862;2023-07-29T07:51:27;99763.69;;;20.43;68.21
72359;BME280;60317;48.880;-0.862;2023-07-29T07:53:54;99770.75;;;20.44;68.07
72359;BME280;60317;48.880;-0.862;2023-07-29T07:56:21;99773.44;;;20.44;68.07
72359;BME280;60317;48.880;-0.862;2023-07-29T07:58:48;99768.06;;;20.44;67.93
72359;BME280;60317;48.880;-0.862;2023-07-29T08:01:15;99772.59;;;20.44;67.98
72359;BME280;60317;48.880;-0.862;2023-07-29T08:03:41;99768.22;;;20.43;68.41
72359;BME280;60317;48.880;-0.862;2023-07-29T08:06:08;99770.75;;;20.44;68.04
72359;BME280;60317;48.880;-0.862;2023-07-29T08:08:36;99769.75;;;20.45;68.18
72359;BME280;60317;48.880;-0.862;2023-07-29T08:11:03;99776.81;;;20.46;68.49
72359;BME280;60317;48.880;-0.862;2023-07-29T08:13:29;99767.91;;;20.46;68.62
72359;BME280;60317;48.880;-0.862;2023-07-29T08:15:57;99771.44;;;20.46;68.30
72359;BME280;60317;48.880;-0.862;2023-07-29T08:18:23;99761.56;;;20.47;68.32
72359;BME280;60317;48.880;-0.862;2023-07-29T08:20:52;99763.41;;;20.46;68.34
72359;BME280;60317;48.880;-0.862;2023-07-29T08:23:18;99767.75;;;20.47;68.61
72359;BME280;60317;48.880;-0.862;2023-07-29T08:25:45;99766.09;;;20.46;68.36
72359;BME280;60317;48.880;-0.862;2023-07-29T08:28:16;99770.44;;;20.47;68.56
72359;BME280;60317;48.880;-0.862;2023-07-29T08:30:42;99769.44;;;20.48;68.51
72359;BME280;60317;48.880;-0.862;2023-07-29T08:33:10;99762.22;;;20.49;68.37
72359;BME280;60317;48.880;-0.862;2023-07-29T08:35:36;99772.13;;;20.48;68.61
72359;BME280;60317;48.880;-0.862;2023-07-29T08:38:03;99776.41;;;20.51;68.50
72359;BME280;60317;48.880;-0.862;2023-07-29T08:40:30;99768.44;;;20.49;68.59
72359;BME280;60317;48.880;-0.862;2023-07-29T08:42:58;99784.44;;;20.51;68.59
72359;BME280;60317;48.880;-0.862;2023-07-29T08:45:29;99780.09;;;20.50;68.47
72359;BME280;60317;48.880;-0.862;2023-07-29T08:47:58;99788.81;;;20.52;68.25
72359;BME280;60317;48.880;-0.862;2023-07-29T08:50:27;99771.13;;;20.49;68.40
72359;BME280;60317;48.880;-0.862;2023-07-29T08:52:55;99784.44;;;20.51;68.60
72359;BME280;60317;48.880;-0.862;2023-07-29T08:55:22;99791.75;;;20.49;68.76
72359;BME280;60317;48.880;-0.862;2023-07-29T08:57:48;99805.09;;;20.51;68.28
72359;BME280;60317;48.880;-0.862;2023-07-29T09:00:15;99808.88;;;20.48;68.08
72359;BME280;60317;48.880;-0.862;2023-07-29T09:02:46;99794.63;;;20.47;67.78
72359;BME280;60317;48.880;-0.862;2023-07-29T09:05:13;99799.13;;;20.47;67.65
72359;BME280;60317;48.880;-0.862;2023-07-29T09:07:41;99800.97;;;20.46;67.61
72359;BME280;60317;48.880;-0.862;2023-07-29T09:10:09;99803.50;;;20.48;67.64
72359;BME280;60317;48.880;-0.862;2023-07-29T09:12:35;99803.66;;;20.46;67.60
72359;BME280;60317;48.880;-0.862;2023-07-29T09:15:02;99808.03;;;20.47;67.73
72359;BME280;60317;48.880;-0.862;2023-07-29T09:17:31;99809.72;;;20.48;67.51
72359;BME280;60317;48.880;-0.862;2023-07-29T09:19:59;99806.34;;;20.46;67.61
72359;BME280;60317;48.880;-0.862;2023-07-29T09:22:26;99802.66;;;20.47;67.77
72359;BME280;60317;48.880;-0.862;2023-07-29T09:24:56;99816.09;;;20.47;67.72
72359;BME280;60317;48.880;-0.862;2023-07-29T09:27:23;99816.09;;;20.47;67.69
72359;BME280;60317;48.880;-0.862;2023-07-29T09:29:50;99824.13;;;20.47;67.72
72359;BME280;60317;48.880;-0.862;2023-07-29T09:32:18;99833.88;;;20.48;67.52
72359;BME280;60317;48.880;-0.862;2023-07-29T09:34:44;99839.41;;;20.47;67.70
72359;BME280;60317;48.880;-0.862;2023-07-29T09:37:15;99843.78;;;20.48;67.86
72359;BME280;60317;48.880;-0.862;2023-07-29T09:39:44;99845.59;;;20.47;67.73
72359;BME280;60317;48.880;-0.862;2023-07-29T09:42:18;99842.94;;;20.47;67.42
72359;BME280;60317;48.880;-0.862;2023-07-29T09:44:44;99842.09;;;20.47;67.30
72359;BME280;60317;48.880;-0.862;2023-07-29T09:47:19;99837.56;;;20.47;67.37
72359;BME280;60317;48.880;-0.862;2023-07-29T09:49:46;99835.88;;;20.46;67.30
72359;BME280;60317;48.880;-0.862;2023-07-29T09:52:14;99831.34;;;20.47;67.15
72359;BME280;60317;48.880;-0.862;2023-07-29T09:54:42;99837.56;;;20.47;67.00
72359;BME280;60317;48.880;-0.862;2023-07-29T09:57:09;99837.41;;;20.49;66.92
72359;BME280;60317;48.880;-0.862;2023-07-29T09:59:37;99831.19;;;20.48;66.72
72359;BME280;60317;48.880;-0.862;2023-07-29T10:02:04;99831.19;;;20.48;66.75
72359;BME280;60317;48.880;-0.862;2023-07-29T10:04:31;99827.50;;;20.49;66.58
72359;BME280;60317;48.880;-0.862;2023-07-29T10:06:59;99834.72;;;20.49;66.48
72359;BME280;60317;48.880;-0.862;2023-07-29T10:09:27;99834.63;;;20.51;66.63
72359;BME280;60317;48.880;-0.862;2023-07-29T10:11:53;99835.56;;;20.49;66.51
72359;BME280;60317;48.880;-0.862;2023-07-29T10:14:20;99838.25;;;20.49;66.20
72359;BME280;60317;48.880;-0.862;2023-07-29T10:16:49;99849.97;;;20.48;65.98
72359;BME280;60317;48.880;-0.862;2023-07-29T10:19:17;99834.72;;;20.49;65.38
72359;BME280;60317;48.880;-0.862;2023-07-29T10:21:46;99845.44;;;20.49;65.31
72359;BME280;60317;48.880;-0.862;2023-07-29T10:24:15;99856.09;;;20.51;65.22
72359;BME280;60317;48.880;-0.862;2023-07-29T10:26:46;99842.75;;;20.49;64.62
72359;BME280;60317;48.880;-0.862;2023-07-29T10:29:14;99835.56;;;20.49;64.47
72359;BME280;60317;48.880;-0.862;2023-07-29T10:31:43;99840.91;;;20.49;63.64
72359;BME280;60317;48.880;-0.862;2023-07-29T10:34:12;99840.06;;;20.49;63.63
72359;BME280;60317;48.880;-0.862;2023-07-29T10:36:40;99838.25;;;20.49;63.28
72359;BME280;60317;48.880;-0.862;2023-07-29T10:39:07;99840.06;;;20.49;62.81
72359;BME280;60317;48.880;-0.862;2023-07-29T10:44:45;99838.56;;;20.46;62.37
72359;BME280;60317;48.880;-0.862;2023-07-29T10:47:13;99845.44;;;20.49;62.42
72359;BME280;60317;48.880;-0.862;2023-07-29T10:49:41;99843.59;;;20.49;62.50
72359;BME280;60317;48.880;-0.862;2023-07-29T10:52:08;99840.06;;;20.49;62.35
72359;BME280;60317;48.880;-0.862;2023-07-29T10:54:41;99848.03;;;20.51;61.58
72359;BME280;60317;48.880;-0.862;2023-07-29T10:57:12;99842.75;;;20.49;61.74
72359;BME280;60317;48.880;-0.862;2023-07-29T10:59:39;99846.28;;;20.49;61.40
72359;BME280;60317;48.880;-0.862;2023-07-29T11:02:14;99847.19;;;20.50;61.25
72359;BME280;60317;48.880;-0.862;2023-07-29T11:04:51;99840.81;;;20.51;61.39
72359;BME280;60317;48.880;-0.862;2023-07-29T11:07:23;99839.97;;;20.51;61.26
72359;BME280;60317;48.880;-0.862;2023-07-29T11:09:55;99838.25;;;20.49;61.34
72359;BME280;60317;48.880;-0.862;2023-07-29T11:12:34;99848.88;;;20.51;60.08
72359;BME280;60317;48.880;-0.862;2023-07-29T11:15:04;99854.25;;;20.51;59.84
72359;BME280;60317;48.880;-0.862;2023-07-29T11:17:32;99840.81;;;20.51;60.18
72359;BME280;60317;48.880;-0.862;2023-07-29T11:20:02;99847.03;;;20.52;59.78
72359;BME280;60317;48.880;-0.862;2023-07-29T11:22:29;99853.25;;;20.52;59.34
72359;BME280;60317;48.880;-0.862;2023-07-29T11:24:59;99854.09;;;20.53;59.02
72359;BME280;60317;48.880;-0.862;2023-07-29T11:27:26;99851.41;;;20.53;58.64
72359;BME280;60317;48.880;-0.862;2023-07-29T11:29:56;99856.75;;;20.53;58.57
72359;BME280;60317;48.880;-0.862;2023-07-29T11:32:24;99853.25;;;20.52;58.58
72359;BME280;60317;48.880;-0.862;2023-07-29T11:34:51;99850.56;;;20.52;58.25
72359;BME280;60317;48.880;-0.862;2023-07-29T11:37:19;99860.47;;;20.52;58.57
72359;BME280;60317;48.880;-0.862;2023-07-29T11:39:46;99850.56;;;20.52;59.02
72359;BME280;60317;48.880;-0.862;2023-07-29T11:42:13;99855.94;;;20.52;58.61
72359;BME280;60317;48.880;-0.862;2023-07-29T11:44:40;99861.16;;;20.54;58.06
72359;BME280;60317;48.880;-0.862;2023-07-29T11:47:07;99865.66;;;20.53;58.43
72359;BME280;60317;48.880;-0.862;2023-07-29T11:49:34;99867.50;;;20.53;58.51
72359;BME280;60317;48.880;-0.862;2023-07-29T11:52:02;99874.59;;;20.54;58.34
72359;BME280;60317;48.880;-0.862;2023-07-29T11:54:30;99864.69;;;20.54;58.24
72359;BME280;60317;48.880;-0.862;2023-07-29T11:56:57;99882.63;;;20.54;58.54
72359;BME280;60317;48.880;-0.862;2023-07-29T11:59:23;99870.91;;;20.55;58.23
72359;BME280;60317;48.880;-0.862;2023-07-29T12:01:50;99875.25;;;20.56;57.70
72359;BME280;60317;48.880;-0.862;2023-07-29T12:04:18;99871.75;;;20.55;57.88
72359;BME280;60317;48.880;-0.862;2023-07-29T12:06:44;99871.75;;;20.55;58.49
72359;BME280;60317;48.880;-0.862;2023-07-29T12:09:11;99867.22;;;20.56;57.81
72359;BME280;60317;48.880;-0.862;2023-07-29T12:11:39;99871.75;;;20.55;58.14
72359;BME280;60317;48.880;-0.862;2023-07-29T12:14:07;99872.59;;;20.56;57.78
72359;BME280;60317;48.880;-0.862;2023-07-29T12:16:40;99879.63;;;20.57;57.38
72359;BME280;60317;48.880;-0.862;2023-07-29T12:19:07;99876.94;;;20.57;58.12
72359;BME280;60317;48.880;-0.862;2023-07-29T12:21:33;99874.97;;;20.59;57.55
72359;BME280;60317;48.880;-0.862;2023-07-29T12:24:00;99876.81;;;20.58;58.57
72359;BME280;60317;48.880;-0.862;2023-07-29T12:26:28;99876.81;;;20.58;58.72
72359;BME280;60317;48.880;-0.862;2023-07-29T12:28:56;99879.63;;;20.57;58.72
72359;BME280;60317;48.880;-0.862;2023-07-29T12:31:31;99880.34;;;20.59;58.24
72359;BME280;60317;48.880;-0.862;2023-07-29T12:33:57;99889.25;;;20.59;58.78
72359;BME280;60317;48.880;-0.862;2023-07-29T12:36:27;99888.41;;;20.59;58.52
72359;BME280;60317;48.880;-0.862;2023-07-29T12:38:59;99886.56;;;20.59;58.43
72359;BME280;60317;48.880;-0.862;2023-07-29T12:41:25;99889.25;;;20.59;58.58
72359;BME280;60317;48.880;-0.862;2023-07-29T12:43:52;99886.56;;;20.59;58.36
72359;BME280;60317;48.880;-0.862;2023-07-29T12:46:19;99883.03;;;20.59;58.50
72359;BME280;60317;48.880;-0.862;2023-07-29T12:48:46;99897.28;;;20.59;58.39
72359;BME280;60317;48.880;-0.862;2023-07-29T12:51:12;99883.88;;;20.59;58.59
72359;BME280;60317;48.880;-0.862;2023-07-29T12:53:39;99882.88;;;20.60;58.10
72359;BME280;60317;48.880;-0.862;2023-07-29T12:56:06;99887.25;;;20.61;57.89